Time;durP1;ratioP1;P1;durP2;ratioP2;P2;SDS_P1;SDS_P2;PMS_P1;PMS_P2;Temp;Humidity;BMP_temperature;BMP_pressure;BME280_temperature;BME280_humidity;BME280_pressure;Samples;Min_cycle;Max_cycle;Signal;HPM_P1;HPM_P2
2021/07/12 00:01:25;;;;;;;9.88;8.90;;;19.50;99.90;;;;;;5051712;28;20399;-59
2021/07/12 00:03:50;;;;;;;9.32;8.52;;;19.50;99.90;;;;;;5051764;28;20052;-59
2021/07/12 00:06:16;;;;;;;9.48;8.63;;;19.40;99.90;;;;;;5051638;28;20040;-59
2021/07/12 00:08:42;;;;;;;10.23;9.32;;;19.40;99.90;;;;;;5051479;28;20045;-59
2021/07/12 00:11:08;;;;;;;9.07;8.25;;;19.30;99.90;;;;;;5051533;28;20076;-59
2021/07/12 00:13:34;;;;;;;7.90;7.20;;;19.40;99.90;;;;;;5051487;28;20064;-59
2021/07/12 00:16:04;;;;;;;8.25;7.45;;;19.30;99.90;;;;;;5051587;28;20065;-59
2021/07/12 00:18:30;;;;;;;9.23;8.15;;;19.30;99.90;;;;;;5051532;28;20052;-59
2021/07/12 00:20:56;;;;;;;10.13;9.13;;;19.40;99.90;;;;;;5051477;28;20548;-59
2021/07/12 00:23:22;;;;;;;10.48;9.48;;;19.30;99.90;;;;;;5051438;28;20049;-59
2021/07/12 00:25:48;;;;;;;8.30;7.60;;;19.30;99.90;;;;;;5051418;28;20052;-59
2021/07/12 00:28:13;;;;;;;10.27;9.40;;;19.20;99.90;;;;;;5051427;28;20041;-59
2021/07/12 00:30:39;;;;;;;9.90;8.95;;;19.20;99.90;;;;;;5051460;28;20475;-59
2021/07/12 00:33:06;;;;;;;11.88;9.55;;;19.20;99.90;;;;;;5051393;28;20052;-59
2021/07/12 00:35:32;;;;;;;9.77;8.88;;;19.20;99.90;;;;;;5051250;28;20041;-59
2021/07/12 00:37:59;;;;;;;10.45;9.63;;;19.20;99.90;;;;;;5051334;28;20186;-59
2021/07/12 00:40:27;;;;;;;10.13;9.18;;;19.20;99.90;;;;;;5051124;28;20075;-60
2021/07/12 00:42:53;;;;;;;9.73;8.65;;;19.20;99.90;;;;;;5051393;28;20045;-59
2021/07/12 00:45:24;;;;;;;9.55;8.50;;;19.20;99.90;;;;;;5051113;28;20045;-59
2021/07/12 00:47:52;;;;;;;9.32;8.43;;;19.20;99.90;;;;;;5051040;28;20442;-60
2021/07/12 00:50:20;;;;;;;9.10;8.15;;;19.20;99.90;;;;;;5051156;28;20045;-60
2021/07/12 00:52:47;;;;;;;10.48;9.02;;;19.20;99.90;;;;;;5051099;28;20095;-59
2021/07/12 00:55:22;;;;;;;8.93;8.00;;;19.20;99.90;;;;;;5051288;28;20131;-59
2021/07/12 00:57:48;;;;;;;9.30;8.40;;;19.20;99.90;;;;;;5051523;28;20386;-60
2021/07/12 01:00:16;;;;;;;8.82;7.95;;;19.30;99.90;;;;;;5051363;28;20041;-59
2021/07/12 01:02:43;;;;;;;6.70;6.20;;;19.30;99.90;;;;;;5051193;28;20049;-60
2021/07/12 01:05:11;;;;;;;8.00;7.38;;;19.30;99.90;;;;;;5051293;28;20482;-59
2021/07/12 01:07:37;;;;;;;10.93;9.63;;;19.30;99.90;;;;;;5050933;28;20051;-60
2021/07/12 01:10:04;;;;;;;10.10;9.30;;;19.40;99.90;;;;;;5052360;28;20045;-59
2021/07/12 01:13:26;;;;;;;9.05;8.25;;;19.40;99.90;;;;;;5055008;28;20045;-59
2021/07/12 01:15:52;;;;;;;;;;;19.40;99.90;;;;;;5013053;28;20042;-60
2021/07/12 01:18:22;;;;;;;8.32;7.53;;;19.40;99.90;;;;;;5012536;28;20367;-59
2021/07/12 01:21:07;;;;;;;8.60;7.80;;;19.40;99.90;;;;;;5012794;28;20042;-59
2021/07/12 01:24:10;;;;;;;9.25;8.45;;;19.40;99.90;;;;;;5012614;28;20075;-59
2021/07/12 01:27:05;;;;;;;9.80;8.90;;;19.40;99.90;;;;;;5012546;28;20042;-59
2021/07/12 01:30:00;;;;;;;9.93;8.95;;;19.40;99.90;;;;;;5012408;28;20136;-59
2021/07/12 01:33:03;;;;;;;9.85;8.88;;;19.40;99.90;;;;;;5012464;28;20053;-58
2021/07/12 01:36:00;;;;;;;9.07;8.18;;;19.40;99.90;;;;;;5012227;28;20203;-59
2021/07/12 01:38:41;;;;;;;9.18;8.38;;;19.40;99.90;;;;;;5009611;28;20201;-59
2021/07/12 01:41:16;;;;;;;9.90;9.02;;;19.40;99.90;;;;;;5012341;28;20435;-59
2021/07/12 01:44:02;;;;;;;9.77;8.93;;;19.40;99.90;;;;;;5012330;28;20038;-59
2021/07/12 01:46:45;;;;;;;8.98;7.88;;;19.40;99.90;;;;;;5012232;28;20088;-59
2021/07/12 01:49:19;;;;;;;10.40;9.43;;;19.40;99.90;;;;;;5012043;28;20052;-59
2021/07/12 01:52:05;;;;;;;12.25;11.05;;;19.30;99.90;;;;;;5044882;28;20052;-59
2021/07/12 01:54:36;;;;;;;11.10;10.10;;;19.30;99.90;;;;;;5053994;28;20041;-59
2021/07/12 01:57:11;;;;;;;12.70;11.50;;;19.30;99.90;;;;;;5053836;28;20037;-59
2021/07/12 01:59:56;;;;;;;12.60;11.30;;;19.20;99.90;;;;;;5053700;28;20069;-59
2021/07/12 02:02:27;;;;;;;10.48;9.57;;;19.10;99.90;;;;;;5053882;28;20044;-59
2021/07/12 02:04:55;;;;;;;11.48;10.43;;;19.20;99.90;;;;;;5053777;28;20056;-58
2021/07/12 02:07:22;;;;;;;11.52;10.52;;;19.20;99.90;;;;;;5053694;28;20048;-59
2021/07/12 02:09:50;;;;;;;11.65;10.60;;;19.20;99.90;;;;;;5053343;28;20043;-58
2021/07/12 02:12:17;;;;;;;11.27;10.27;;;19.20;99.90;;;;;;5053600;28;20037;-59
2021/07/12 02:14:44;;;;;;;13.73;11.05;;;19.20;99.90;;;;;;5053499;28;20048;-59
2021/07/12 02:17:11;;;;;;;11.65;10.65;;;19.10;99.90;;;;;;5053378;28;20095;-59
2021/07/12 02:19:39;;;;;;;10.98;10.05;;;19.10;99.90;;;;;;5052215;28;20044;-58
2021/07/12 02:22:05;;;;;;;12.63;10.87;;;19.10;99.90;;;;;;5052165;28;20049;-58
2021/07/12 02:24:32;;;;;;;12.20;10.95;;;19.10;99.90;;;;;;5053256;28;20048;-59
2021/07/12 02:26:59;;;;;;;12.75;11.60;;;19.00;99.90;;;;;;5053412;28;20052;-58
2021/07/12 02:29:26;;;;;;;12.02;10.90;;;19.10;99.90;;;;;;5053132;28;20041;-58
2021/07/12 02:31:54;;;;;;;11.95;10.93;;;19.00;99.90;;;;;;5053228;28;20037;-58
2021/07/12 02:34:22;;;;;;;12.27;11.18;;;19.10;99.90;;;;;;5052833;28;20140;-59
2021/07/12 02:36:50;;;;;;;11.50;10.43;;;19.10;99.90;;;;;;5053212;28;20079;-59
2021/07/12 02:39:17;;;;;;;17.83;11.83;;;19.00;99.90;;;;;;5053161;28;20669;-58
2021/07/12 02:41:45;;;;;;;13.13;11.93;;;19.00;99.90;;;;;;5053325;28;20299;-58
2021/07/12 02:44:13;;;;;;;13.00;11.75;;;18.90;99.90;;;;;;5053340;28;20045;-58
2021/07/12 02:46:40;;;;;;;13.60;12.20;;;18.90;99.90;;;;;;5053179;28;20163;-59
2021/07/12 02:49:06;;;;;;;12.20;11.10;;;18.80;99.90;;;;;;5053255;28;20041;-59
2021/07/12 02:51:45;;;;;;;12.73;11.60;;;18.80;99.90;;;;;;5052979;28;20083;-59
2021/07/12 02:54:13;;;;;;;12.63;11.50;;;18.70;99.90;;;;;;5052680;28;20550;-59
2021/07/12 02:56:39;;;;;;;13.90;11.88;;;18.80;99.90;;;;;;5052818;28;20041;-59
2021/07/12 02:59:05;;;;;;;13.93;12.52;;;18.80;99.90;;;;;;5052612;28;20040;-59
2021/07/12 03:01:31;;;;;;;14.70;12.73;;;18.80;99.90;;;;;;5052539;28;20140;-59
2021/07/12 03:03:56;;;;;;;14.68;13.18;;;18.80;99.90;;;;;;5052458;28;20048;-59
2021/07/12 03:06:28;;;;;;;16.27;14.77;;;18.70;99.90;;;;;;5052482;28;20078;-59
2021/07/12 03:08:58;;;;;;;15.35;14.02;;;18.60;99.90;;;;;;5052530;28;20052;-59
2021/07/12 03:11:36;;;;;;;15.02;13.45;;;18.60;99.90;;;;;;5052463;28;20048;-59
2021/07/12 03:14:11;;;;;;;14.43;13.02;;;18.70;99.90;;;;;;5052467;28;20036;-58
2021/07/12 03:16:38;;;;;;;15.05;13.75;;;18.70;99.90;;;;;;5052256;28;20037;-58
2021/07/12 03:19:06;;;;;;;13.55;12.23;;;18.70;99.90;;;;;;5052525;28;20123;-59
2021/07/12 03:21:32;;;;;;;16.00;14.40;;;18.70;99.90;;;;;;5052180;28;20033;-59
2021/07/12 03:24:01;;;;;;;14.18;12.88;;;18.70;99.90;;;;;;5052273;28;20068;-59
2021/07/12 03:26:28;;;;;;;17.08;15.52;;;18.80;99.90;;;;;;5050830;28;20041;-58
2021/07/12 03:28:55;;;;;;;15.23;13.83;;;18.70;99.90;;;;;;5052023;28;20041;-58
2021/07/12 03:31:26;;;;;;;16.13;14.38;;;18.70;99.90;;;;;;5052074;28;20380;-59
2021/07/12 03:33:55;;;;;;;15.45;14.05;;;18.70;99.90;;;;;;5051512;28;20099;-59
2021/07/12 03:36:23;;;;;;;15.20;13.80;;;18.70;99.90;;;;;;5052271;28;20053;-58
2021/07/12 03:38:50;;;;;;;15.82;14.23;;;18.70;99.90;;;;;;5052010;28;20094;-58
2021/07/12 03:41:16;;;;;;;14.68;13.38;;;18.70;99.90;;;;;;5052006;28;20048;-59
2021/07/12 03:43:42;;;;;;;16.17;14.48;;;18.70;99.90;;;;;;5051906;28;20053;-59
2021/07/12 03:46:09;;;;;;;15.18;13.77;;;18.70;99.90;;;;;;5052211;28;20041;-58
2021/07/12 03:48:38;;;;;;;16.25;14.75;;;18.70;99.90;;;;;;5052025;28;20091;-58
2021/07/12 03:51:05;;;;;;;16.20;14.57;;;18.70;99.90;;;;;;5051823;28;20617;-58
2021/07/12 03:53:32;;;;;;;13.87;12.60;;;18.70;99.90;;;;;;5051672;28;20049;-59
2021/07/12 03:55:59;;;;;;;14.77;13.38;;;18.80;99.90;;;;;;5051763;28;20037;-59
2021/07/12 03:58:25;;;;;;;14.85;13.43;;;18.90;99.90;;;;;;5051551;28;20048;-58
2021/07/12 04:00:50;;;;;;;15.05;13.65;;;18.90;99.90;;;;;;5051837;28;20056;-58
2021/07/12 04:03:16;;;;;;;14.80;13.30;;;18.90;99.90;;;;;;5051996;28;20045;-58
2021/07/12 04:05:42;;;;;;;16.35;14.70;;;18.90;99.90;;;;;;5051651;28;20098;-59
2021/07/12 04:08:08;;;;;;;15.45;14.10;;;18.90;99.90;;;;;;5051492;28;20057;-58
2021/07/12 04:10:34;;;;;;;15.18;13.68;;;18.90;99.90;;;;;;5051539;28;20049;-58
2021/07/12 04:13:00;;;;;;;17.98;16.17;;;18.90;99.90;;;;;;5050373;28;20090;-59
2021/07/12 04:15:26;;;;;;;14.50;13.13;;;18.90;99.90;;;;;;5051500;28;20037;-59
2021/07/12 04:17:52;;;;;;;14.45;13.10;;;18.90;99.90;;;;;;5051522;28;20119;-59
2021/07/12 04:20:18;;;;;;;14.35;13.05;;;18.90;99.90;;;;;;5051457;28;20471;-58
2021/07/12 04:22:44;;;;;;;14.68;13.35;;;18.90;99.90;;;;;;5051548;28;20454;-59
2021/07/12 04:25:11;;;;;;;16.02;14.55;;;19.00;99.90;;;;;;5051382;28;20132;-58
2021/07/12 04:27:38;;;;;;;17.17;15.50;;;18.90;99.90;;;;;;5051269;28;20041;-59
2021/07/12 04:30:05;;;;;;;14.63;13.32;;;18.90;99.90;;;;;;5051214;28;20045;-59
2021/07/12 04:32:31;;;;;;;15.85;14.45;;;18.90;99.90;;;;;;5051201;28;20413;-59
2021/07/12 04:34:57;;;;;;;14.02;12.73;;;18.90;99.90;;;;;;5051329;28;20049;-58
2021/07/12 04:37:23;;;;;;;16.00;14.48;;;18.90;99.90;;;;;;5051314;28;20052;-58
2021/07/12 04:39:49;;;;;;;15.95;14.55;;;19.00;99.90;;;;;;5051222;28;20553;-58
2021/07/12 04:42:15;;;;;;;16.58;14.98;;;19.00;99.90;;;;;;5051203;28;20048;-58
2021/07/12 04:44:40;;;;;;;16.77;15.18;;;18.90;99.90;;;;;;5051879;28;20040;-58
2021/07/12 04:47:07;;;;;;;17.27;15.57;;;19.00;99.90;;;;;;5055057;28;20037;-59
2021/07/12 04:49:33;;;;;;;17.55;15.80;;;19.00;99.90;;;;;;5055006;28;20445;-59
2021/07/12 04:51:59;;;;;;;18.65;16.88;;;19.00;99.90;;;;;;5055119;28;20372;-58
2021/07/12 04:54:25;;;;;;;17.83;16.17;;;19.00;99.90;;;;;;5055492;28;20047;-57
2021/07/12 04:56:50;;;;;;;16.50;15.05;;;19.00;99.90;;;;;;5055253;28;20416;-58
2021/07/12 04:59:18;;;;;;;18.10;16.30;;;19.00;99.90;;;;;;5055508;28;20136;-58
2021/07/12 05:01:43;;;;;;;14.90;13.43;;;19.00;99.90;;;;;;5055247;28;20079;-58
2021/07/12 05:04:10;;;;;;;19.33;17.42;;;19.00;99.90;;;;;;5054975;28;20482;-58
2021/07/12 05:06:36;;;;;;;17.67;15.80;;;19.00;99.90;;;;;;5054853;28;20075;-58
2021/07/12 05:09:04;;;;;;;21.15;18.95;;;19.10;99.90;;;;;;5054707;28;20053;-58
2021/07/12 05:11:30;;;;;;;16.27;14.60;;;19.10;99.90;;;;;;5054688;28;20044;-58
2021/07/12 05:13:56;;;;;;;18.63;16.80;;;19.10;99.90;;;;;;5054542;28;20483;-59
2021/07/12 05:16:24;;;;;;;17.48;15.63;;;19.10;99.90;;;;;;5054753;28;20041;-59
2021/07/12 05:18:50;;;;;;;19.20;17.33;;;19.20;99.90;;;;;;5054617;28;20122;-58
2021/07/12 05:21:16;;;;;;;20.67;18.48;;;19.20;99.90;;;;;;5054488;28;20041;-57
2021/07/12 05:23:42;;;;;;;18.17;16.38;;;19.20;99.90;;;;;;5054426;28;20048;-58
2021/07/12 05:26:09;;;;;;;22.55;20.33;;;19.30;99.90;;;;;;5054427;28;20039;-58
2021/07/12 05:28:37;;;;;;;23.23;20.92;;;19.20;99.90;;;;;;5054341;28;20045;-58
2021/07/12 05:31:02;;;;;;;23.93;21.57;;;19.30;99.90;;;;;;5054274;28;20047;-58
2021/07/12 05:33:28;;;;;;;24.83;22.52;;;19.30;99.90;;;;;;5054136;28;20300;-58
2021/07/12 05:35:54;;;;;;;23.27;20.77;;;19.30;99.90;;;;;;5054237;28;20139;-58
2021/07/12 05:38:19;;;;;;;24.42;22.08;;;19.30;99.90;;;;;;5054118;28;20045;-58
2021/07/12 05:40:45;;;;;;;24.10;21.67;;;19.30;99.90;;;;;;5054181;28;20044;-58
2021/07/12 05:43:11;;;;;;;23.52;21.08;;;19.30;99.90;;;;;;5054003;28;20105;-58
2021/07/12 05:45:36;;;;;;;22.88;20.65;;;19.30;99.90;;;;;;5054043;28;20467;-58
2021/07/12 05:48:02;;;;;;;22.77;20.55;;;19.30;99.90;;;;;;5053909;28;20112;-59
2021/07/12 05:50:28;;;;;;;21.83;19.65;;;19.40;99.90;;;;;;5054001;28;20439;-58
2021/07/12 05:52:54;;;;;;;23.20;20.52;;;19.40;99.90;;;;;;5053767;28;20045;-59
2021/07/12 05:55:19;;;;;;;21.30;19.20;;;19.50;99.90;;;;;;5052393;28;20040;-58
2021/07/12 05:57:45;;;;;;;22.45;20.13;;;19.50;99.90;;;;;;5053934;28;20033;-58
2021/07/12 06:00:12;;;;;;;21.13;18.95;;;19.50;99.90;;;;;;5054071;28;20485;-59
2021/07/12 06:02:39;;;;;;;21.02;18.83;;;19.60;99.90;;;;;;5054095;28;20057;-57
2021/07/12 06:05:06;;;;;;;25.85;21.13;;;19.60;99.90;;;;;;5053861;28;20052;-59
2021/07/12 06:07:32;;;;;;;20.23;18.42;;;19.60;99.90;;;;;;5053890;28;20041;-58
2021/07/12 06:09:58;;;;;;;24.55;22.15;;;19.70;99.90;;;;;;5053750;28;20387;-58
2021/07/12 06:12:24;;;;;;;23.42;20.67;;;19.70;99.90;;;;;;5053559;28;20037;-58
2021/07/12 06:14:49;;;;;;;21.52;19.33;;;19.70;99.90;;;;;;5053499;28;20098;-58
2021/07/12 06:17:15;;;;;;;23.63;21.13;;;19.80;99.90;;;;;;5053542;28;20074;-58
2021/07/12 06:19:41;;;;;;;21.92;19.88;;;19.70;99.90;;;;;;5053261;28;20051;-59
2021/07/12 06:22:07;;;;;;;22.42;20.13;;;19.70;99.90;;;;;;5053819;28;20045;-59
2021/07/12 06:24:33;;;;;;;22.80;20.45;;;19.80;99.90;;;;;;5053629;28;20447;-61
2021/07/12 06:26:59;;;;;;;22.00;19.70;;;19.80;99.90;;;;;;5053435;28;20136;-61
2021/07/12 06:29:25;;;;;;;21.27;19.08;;;19.80;99.90;;;;;;5053267;28;20052;-61
2021/07/12 06:31:50;;;;;;;22.70;17.92;;;19.80;99.90;;;;;;5053096;28;20048;-61
2021/07/12 06:34:16;;;;;;;20.17;18.13;;;19.90;99.90;;;;;;5051738;28;20052;-60
2021/07/12 06:36:42;;;;;;;19.95;17.90;;;19.90;99.90;;;;;;5052998;28;20044;-61
2021/07/12 06:39:08;;;;;;;19.48;17.23;;;20.00;99.90;;;;;;5053207;28;20076;-60
2021/07/12 06:41:34;;;;;;;18.23;16.42;;;20.00;99.90;;;;;;5052994;28;20475;-61
2021/07/12 06:43:59;;;;;;;19.13;17.23;;;20.00;99.90;;;;;;5053016;28;20041;-61
2021/07/12 06:46:25;;;;;;;20.60;18.60;;;20.10;99.90;;;;;;5052854;28;20432;-61
2021/07/12 06:48:51;;;;;;;18.98;16.92;;;20.10;99.90;;;;;;5052864;28;20056;-59
2021/07/12 06:51:17;;;;;;;20.48;18.48;;;20.20;99.90;;;;;;5053119;28;20535;-59
2021/07/12 06:53:44;;;;;;;17.67;16.00;;;20.10;99.90;;;;;;5053388;28;20080;-59
2021/07/12 06:56:11;;;;;;;19.70;17.33;;;20.20;99.90;;;;;;5052966;28;20457;-60
2021/07/12 06:58:37;;;;;;;18.83;16.83;;;20.10;99.90;;;;;;5052850;28;20118;-59
2021/07/12 07:01:03;;;;;;;18.65;16.77;;;20.10;99.90;;;;;;5051329;28;20486;-59
2021/07/12 07:03:28;;;;;;;18.65;17.00;;;20.20;99.90;;;;;;5052646;28;20047;-59
2021/07/12 07:05:54;;;;;;;20.00;18.10;;;20.20;99.90;;;;;;5052473;28;20041;-58
2021/07/12 07:08:20;;;;;;;18.65;16.88;;;20.20;99.90;;;;;;5051955;28;20422;-58
2021/07/12 07:10:46;;;;;;;20.23;17.30;;;20.30;99.90;;;;;;5052578;28;20056;-60
2021/07/12 07:13:12;;;;;;;18.85;16.95;;;20.40;99.90;;;;;;5052775;28;20033;-59
2021/07/12 07:15:38;;;;;;;16.77;15.27;;;20.50;99.90;;;;;;5052360;28;20045;-59
2021/07/12 07:18:03;;;;;;;18.20;16.38;;;20.60;99.90;;;;;;5052371;28;20033;-60
2021/07/12 07:20:29;;;;;;;14.93;13.55;;;20.80;99.90;;;;;;5052177;28;20470;-58
2021/07/12 07:22:55;;;;;;;15.60;14.20;;;21.10;99.90;;;;;;5052374;28;20407;-58
2021/07/12 07:25:21;;;;;;;14.77;13.48;;;21.90;99.90;;;;;;5052308;28;20406;-58
2021/07/12 07:27:47;;;;;;;12.93;11.52;;;22.20;99.90;;;;;;5052140;28;20037;-58
2021/07/12 07:30:13;;;;;;;12.10;11.10;;;23.10;99.90;;;;;;5052090;28;20045;-58
2021/07/12 07:32:39;;;;;;;12.88;11.57;;;24.30;99.90;;;;;;5049775;28;20044;-58
2021/07/12 07:35:06;;;;;;;13.48;12.07;;;24.70;99.90;;;;;;5052056;28;20044;-58
2021/07/12 07:37:33;;;;;;;11.57;10.55;;;25.30;99.90;;;;;;5052072;28;20041;-58
2021/07/12 07:39:59;;;;;;;11.50;10.40;;;25.50;99.90;;;;;;5051957;28;20044;-58
2021/07/12 07:42:24;;;;;;;11.45;10.27;;;25.20;99.90;;;;;;5052025;28;20041;-58
2021/07/12 07:44:50;;;;;;;9.95;9.05;;;25.20;99.90;;;;;;5052235;28;20547;-58
2021/07/12 07:47:17;;;;;;;10.27;9.35;;;25.20;99.90;;;;;;5052115;28;20562;-58
2021/07/12 07:49:42;;;;;;;9.50;8.40;;;25.10;99.90;;;;;;5052225;28;20045;-57
2021/07/12 07:52:08;;;;;;;11.27;10.27;;;25.00;99.90;;;;;;5051762;28;20041;-58
2021/07/12 07:54:34;;;;;;;10.05;8.88;;;24.90;99.90;;;;;;5051707;28;20128;-58
2021/07/12 07:57:00;;;;;;;10.02;9.07;;;24.80;99.90;;;;;;5051813;28;20048;-59
2021/07/12 07:59:25;;;;;;;8.60;7.90;;;24.70;99.90;;;;;;5051754;28;20048;-58
2021/07/12 08:01:51;;;;;;;7.53;6.80;;;24.70;99.90;;;;;;5051543;28;20101;-59
2021/07/12 08:04:17;;;;;;;9.77;7.65;;;25.20;99.90;;;;;;5051587;28;20076;-58
2021/07/12 08:06:43;;;;;;;8.85;8.07;;;25.40;99.90;;;;;;5051769;28;20163;-58
2021/07/12 08:09:09;;;;;;;8.48;7.78;;;25.50;99.90;;;;;;5051497;28;20037;-58
2021/07/12 08:11:35;;;;;;;8.82;7.85;;;25.20;99.90;;;;;;5051686;28;20072;-59
2021/07/12 08:14:03;;;;;;;8.55;7.78;;;25.10;99.90;;;;;;5051406;28;20105;-59
2021/07/12 08:16:29;;;;;;;8.63;7.82;;;24.90;99.90;;;;;;5051437;28;20041;-59
2021/07/12 08:18:55;;;;;;;9.98;8.98;;;24.80;99.90;;;;;;5051624;28;20102;-59
2021/07/12 08:21:21;;;;;;;9.77;8.88;;;24.60;99.90;;;;;;5055154;28;20045;-59
2021/07/12 08:23:47;;;;;;;8.18;7.43;;;24.80;99.90;;;;;;5055648;28;20111;-59
2021/07/12 08:26:13;;;;;;;9.75;8.80;;;25.30;99.90;;;;;;5055029;28;20491;-60
2021/07/12 08:28:41;;;;;;;8.07;7.38;;;25.20;99.90;;;;;;5055407;28;20045;-59
2021/07/12 08:31:08;;;;;;;10.27;9.27;;;25.10;99.90;;;;;;5055810;28;20495;-59
2021/07/12 08:33:34;;;;;;;10.23;8.70;;;24.90;99.90;;;;;;5059674;28;20040;-59
2021/07/12 08:36:00;;;;;;;10.05;9.15;;;24.80;99.90;;;;;;5061950;28;20099;-59
2021/07/12 08:38:26;;;;;;;10.15;9.15;;;24.60;99.90;;;;;;5064513;28;20041;-59
2021/07/12 08:40:56;;;;;;;8.52;7.80;;;24.50;99.90;;;;;;5064749;28;20048;-59
2021/07/12 08:43:22;;;;;;;10.60;8.60;;;24.50;99.90;;;;;;5055397;28;20048;-60
2021/07/12 08:45:48;;;;;;;10.35;8.35;;;24.40;99.90;;;;;;5055316;28;20095;-60
2021/07/12 08:48:15;;;;;;;9.05;8.25;;;24.50;99.90;;;;;;5055134;28;20048;-56
2021/07/12 08:50:41;;;;;;;8.65;7.85;;;24.80;99.90;;;;;;5058905;28;20072;-56
2021/07/12 08:53:07;;;;;;;9.00;8.00;;;25.40;99.90;;;;;;5073305;28;20449;-56
2021/07/12 08:55:33;;;;;;;9.90;8.98;;;25.90;99.90;;;;;;5063322;28;20143;-56
2021/07/12 08:58:04;;;;;;;12.65;9.63;;;25.90;99.90;;;;;;5065044;28;20155;-56
2021/07/12 09:00:36;;;;;;;11.57;9.43;;;26.20;99.90;;;;;;5063130;28;20090;-56
2021/07/12 09:03:25;;;;;;;10.18;9.23;;;26.20;99.90;;;;;;5063701;28;20037;-56
2021/07/12 09:05:56;;;;;;;10.50;8.85;;;26.30;99.90;;;;;;5064675;28;20045;-56
2021/07/12 09:08:54;;;;;;;8.57;7.57;;;26.00;99.90;;;;;;5063384;28;20436;-56
2021/07/12 09:11:30;;;;;;;11.05;10.02;;;25.90;99.90;;;;;;5003918;28;20045;-56
2021/07/12 09:14:07;;;;;;;10.55;9.57;;;25.60;99.90;;;;;;5003737;28;20046;-60
2021/07/12 09:16:44;;;;;;;10.88;9.88;;;25.40;99.90;;;;;;5003999;28;20070;-61
2021/07/12 09:19:13;;;;;;;10.13;9.13;;;25.50;99.90;;;;;;5002523;28;20097;-60
2021/07/12 09:21:48;;;;;;;11.27;9.95;;;25.70;99.90;;;;;;5004198;28;20057;-60
2021/07/12 09:24:15;;;;;;;11.48;9.40;;;25.80;99.90;;;;;;4997914;28;20798;-60
2021/07/12 09:26:47;;;;;;;10.93;9.85;;;25.80;99.90;;;;;;4993348;28;20844;-60
2021/07/12 09:29:17;;;;;;;9.75;8.75;;;25.80;99.90;;;;;;4993070;28;20547;-60
2021/07/12 09:31:43;;;;;;;9.60;8.77;;;25.70;99.90;;;;;;4992579;28;20057;-60
2021/07/12 09:34:09;;;;;;;9.05;8.25;;;25.80;99.90;;;;;;4992931;28;20150;-60
2021/07/12 09:36:35;;;;;;;9.13;8.32;;;25.70;99.90;;;;;;4993063;28;20125;-60
2021/07/12 09:39:21;;;;;;;9.02;8.10;;;25.70;99.90;;;;;;4992961;28;20136;-60
2021/07/12 09:41:49;;;;;;;7.97;7.22;;;25.60;99.90;;;;;;4993090;28;20393;-60
2021/07/12 09:44:18;;;;;;;8.50;7.45;;;25.50;99.90;;;;;;4992694;28;20046;-60
2021/07/12 09:46:44;;;;;;;9.82;8.82;;;25.60;99.90;;;;;;4992725;28;20583;-61
2021/07/12 09:49:13;;;;;;;9.15;7.57;;;25.40;99.90;;;;;;5047239;28;20092;-60
2021/07/12 09:51:39;;;;;;;10.73;6.80;;;25.40;99.90;;;;;;5064043;28;20171;-60
2021/07/12 09:54:37;;;;;;;8.60;7.82;;;25.30;99.90;;;;;;5059368;28;20131;-60
2021/07/12 09:57:09;;;;;;;7.65;6.82;;;25.10;99.90;;;;;;5053918;28;20489;-61
2021/07/12 09:59:36;;;;;;;9.05;8.15;;;25.00;99.90;;;;;;5052860;28;20484;-60
2021/07/12 10:02:04;;;;;;;9.80;8.80;;;24.90;99.90;;;;;;5054134;28;20048;-60
2021/07/12 10:04:30;;;;;;;9.32;8.35;;;24.80;99.90;;;;;;5053947;28;20120;-60
2021/07/12 10:06:56;;;;;;;10.57;8.43;;;24.70;99.90;;;;;;5053858;28;20584;-60
2021/07/12 10:09:23;;;;;;;9.57;8.68;;;24.70;99.90;;;;;;5053566;28;20406;-60
2021/07/12 10:11:56;;;;;;;11.40;10.27;;;24.60;99.90;;;;;;5053909;28;20048;-60
2021/07/12 10:14:24;;;;;;;9.73;8.82;;;24.60;99.90;;;;;;5053499;28;20733;-60
2021/07/12 10:16:51;;;;;;;10.20;9.30;;;24.60;99.90;;;;;;5053645;28;20433;-60
2021/07/12 10:19:17;;;;;;;10.63;9.70;;;24.60;99.90;;;;;;5053260;28;20056;-60
2021/07/12 10:21:52;;;;;;;11.30;10.23;;;24.60;99.90;;;;;;5053316;28;20052;-60
2021/07/12 10:24:37;;;;;;;10.65;9.73;;;24.60;99.90;;;;;;5053383;28;20056;-60
2021/07/12 10:27:04;;;;;;;9.85;8.95;;;24.70;99.90;;;;;;5053271;28;20543;-60
2021/07/12 10:29:32;;;;;;;9.55;8.65;;;24.70;99.90;;;;;;5053184;28;20036;-60
2021/07/12 10:32:00;;;;;;;;;;;24.70;99.90;;;;;;5053538;28;20048;-60
2021/07/12 10:34:40;;;;;;;10.57;9.57;;;24.60;99.90;;;;;;5052916;28;20270;-61
2021/07/12 10:37:22;;;;;;;12.65;11.35;;;24.70;99.90;;;;;;5053205;28;20490;-60
2021/07/12 10:39:57;;;;;;;10.57;9.68;;;24.70;99.90;;;;;;5053147;28;20053;-60
2021/07/12 10:42:41;;;;;;;11.57;10.63;;;24.90;99.90;;;;;;5052095;28;20158;-60
2021/07/12 10:45:13;;;;;;;11.70;10.70;;;24.90;99.90;;;;;;5053046;28;20048;-61
2021/07/12 10:47:54;;;;;;;10.77;9.82;;;24.90;99.90;;;;;;5053039;28;20055;-60
2021/07/12 10:50:35;;;;;;;12.05;10.85;;;24.90;99.90;;;;;;5053036;28;20441;-61
2021/07/12 10:53:02;;;;;;;12.05;10.95;;;24.80;99.90;;;;;;5052634;28;20045;-60
2021/07/12 10:55:29;;;;;;;12.50;11.40;;;24.70;99.90;;;;;;5052929;28;20040;-61
2021/07/12 10:58:26;;;;;;;12.03;10.93;;;24.70;99.90;;;;;;5052887;28;20079;-60
2021/07/12 11:00:54;;;;;;;10.52;9.63;;;24.80;99.90;;;;;;5052679;28;20049;-60
2021/07/12 11:03:36;;;;;;;11.38;10.38;;;24.80;99.90;;;;;;5052604;28;20069;-60
2021/07/12 11:06:13;;;;;;;14.85;11.60;;;24.70;99.90;;;;;;5052482;28;20067;-60
2021/07/12 11:08:50;;;;;;;12.45;11.45;;;24.60;99.90;;;;;;5052286;28;20553;-60
2021/07/12 11:11:18;;;;;;;11.73;10.73;;;24.50;99.90;;;;;;5052505;28;20045;-60
2021/07/12 11:13:58;;;;;;;11.40;10.40;;;24.70;99.90;;;;;;5052370;28;20044;-60
2021/07/12 11:16:26;;;;;;;12.30;11.20;;;24.70;99.90;;;;;;5052517;28;20060;-60
2021/07/12 11:18:53;;;;;;;12.10;10.95;;;24.60;99.90;;;;;;5052452;28;20106;-61
2021/07/12 11:21:33;;;;;;;12.20;11.10;;;24.60;99.90;;;;;;5052293;28;20119;-60
2021/07/12 11:24:11;;;;;;;13.10;11.75;;;24.70;99.90;;;;;;5052258;28;20041;-60
2021/07/12 11:26:42;;;;;;;12.25;11.02;;;24.70;99.90;;;;;;5052173;28;20391;-61
2021/07/12 11:29:28;;;;;;;12.38;11.25;;;24.70;99.90;;;;;;5052294;28;20052;-60
2021/07/12 11:31:57;;;;;;;12.35;11.15;;;24.70;99.90;;;;;;5052160;28;20037;-60
2021/07/12 11:34:24;;;;;;;12.60;10.48;;;24.70;99.90;;;;;;5051801;28;20049;-60
2021/07/12 11:36:56;;;;;;;13.00;11.68;;;25.00;99.90;;;;;;5052078;28;20052;-60
2021/07/12 11:39:24;;;;;;;13.82;11.02;;;24.80;99.90;;;;;;5051945;28;20044;-60
2021/07/12 11:41:50;;;;;;;11.50;10.40;;;25.00;99.90;;;;;;5052030;28;20040;-60
2021/07/12 11:44:17;;;;;;;14.20;12.80;;;25.10;99.90;;;;;;5051821;28;20037;-60
2021/07/12 11:46:43;;;;;;;12.88;11.77;;;25.10;99.90;;;;;;5051930;28;20041;-61
2021/07/12 11:49:15;;;;;;;14.90;13.50;;;25.10;99.90;;;;;;5051761;28;20056;-60
2021/07/12 11:51:42;;;;;;;15.98;14.55;;;25.10;99.90;;;;;;5051970;28;20147;-60
2021/07/12 11:54:20;;;;;;;14.68;13.15;;;24.90;99.90;;;;;;5051592;28;20068;-61
2021/07/12 11:57:02;;;;;;;13.93;11.88;;;24.90;99.90;;;;;;5051704;28;20036;-60
2021/07/12 11:59:37;;;;;;;14.10;12.70;;;24.90;99.90;;;;;;5051666;28;20041;-60
2021/07/12 12:02:08;;;;;;;15.85;14.35;;;24.90;99.90;;;;;;5052139;28;20044;-60
2021/07/12 12:04:47;;;;;;;13.93;12.65;;;25.10;99.90;;;;;;5051686;28;20090;-60
2021/07/12 12:07:23;;;;;;;15.73;13.93;;;25.00;99.90;;;;;;5051639;28;20073;-60
2021/07/12 12:09:52;;;;;;;14.07;12.55;;;25.00;99.90;;;;;;5051532;28;20040;-60
2021/07/12 12:12:48;;;;;;;13.05;11.88;;;25.10;99.90;;;;;;5062339;28;20447;-60
2021/07/12 12:15:19;;;;;;;13.88;12.43;;;25.10;99.90;;;;;;5070382;28;20090;-60
2021/07/12 12:18:10;;;;;;;12.93;11.68;;;25.40;99.90;;;;;;5071359;28;20052;-60
2021/07/12 12:20:42;;;;;;;12.52;11.40;;;25.20;99.90;;;;;;5071348;28;20072;-60
2021/07/12 12:23:27;;;;;;;11.88;10.70;;;25.50;99.90;;;;;;5073289;28;20036;-60
2021/07/12 12:26:03;;;;;;;11.52;10.43;;;25.80;99.90;;;;;;5056634;28;20036;-60
2021/07/12 12:28:40;;;;;;;17.02;11.02;;;25.80;99.90;;;;;;5070551;28;20049;-61
2021/07/12 12:31:07;;;;;;;12.35;10.98;;;25.90;99.90;;;;;;5071238;28;20045;-60
2021/07/12 12:33:42;;;;;;;11.95;9.40;;;25.90;99.90;;;;;;5070606;28;20080;-60
2021/07/12 12:36:19;;;;;;;10.50;9.50;;;26.10;99.90;;;;;;5070752;28;20048;-60
2021/07/12 12:38:52;;;;;;;10.80;9.80;;;26.20;99.90;;;;;;5071234;28;20078;-60
2021/07/12 12:41:24;;;;;;;10.30;9.25;;;26.20;99.90;;;;;;5071232;28;20123;-61
2021/07/12 12:44:12;;;;;;;10.00;9.07;;;26.10;99.90;;;;;;5066630;28;20115;-60
2021/07/12 12:46:45;;;;;;;12.70;11.50;;;26.20;99.90;;;;;;5071102;28;20067;-60